Time;durP1;ratioP1;P1;durP2;ratioP2;P2;SDS_P1;SDS_P2;PMS_P1;PMS_P2;Temp;Humidity;BMP_temperature;BMP_pressure;BME280_temperature;BME280_humidity;BME280_pressure;Samples;Min_cycle;Max_cycle;Signal;HPM_P1;HPM_P2
2020/12/16 06:13:06;;;;;;;51.60;23.75;;;;;;;-0.37;76.97;97196.94;1766664;77;21120;-85
2020/12/16 06:15:59;;;;;;;59.40;31.73;;;;;;;-0.28;76.92;97191.38;1770695;79;21135;-82
2020/12/16 06:19:04;;;;;;;56.05;32.53;;;;;;;-0.19;76.44;97190.95;1804611;79;21053;-85
2020/12/16 06:21:57;;;;;;;49.88;28.20;;;;;;;-0.18;76.32;97182.27;1816645;79;21418;-82
2020/12/16 06:29:20;;;;;;;60.48;30.80;;;;;;;-0.11;76.38;97184.16;1809577;79;21141;-85
2020/12/16 06:32:46;;;;;;;90.45;44.25;;;;;;;-0.02;75.81;97184.56;1808035;78;21157;-84
2020/12/16 06:36:11;;;;;;;75.90;38.42;;;;;;;0.06;75.50;97191.14;1808906;79;21118;-83
2020/12/16 06:43:38;;;;;;;82.05;42.95;;;;;;;0.09;75.05;97192.30;1679923;80;21081;-84
2020/12/16 16:46:47;;;;;;;49.40;26.93;;;;;;;2.11;76.80;97336.36;1632039;82;21231;-85
2020/12/16 16:50:11;;;;;;;47.65;26.25;;;;;;;2.01;76.89;97342.47;1693197;81;21143;31
2020/12/16 16:53:22;;;;;;;52.38;27.37;;;;;;;2.00;76.88;97347.29;1598305;87;21070;-86
2020/12/16 16:56:32;;;;;;;46.25;24.52;;;;;;;1.99;77.11;97334.39;1585874;89;21095;-88
2020/12/16 16:59:43;;;;;;;47.05;26.87;;;;;;;2.07;76.96;97346.52;1597427;89;21268;-86
2020/12/16 17:03:02;;;;;;;48.48;26.30;;;;;;;2.06;76.63;97351.33;1748930;79;21123;-86
2020/12/16 17:06:12;;;;;;;50.73;27.95;;;;;;;1.98;76.57;97347.00;1839945;78;21041;-85
2020/12/16 17:09:17;;;;;;;43.50;26.02;;;;;;;1.98;76.75;97345.70;1839996;77;21151;-87
2020/12/16 17:11:53;;;;;;;51.27;28.30;;;;;;;2.04;76.43;97350.13;1840509;77;21108;-87
2020/12/16 17:15:02;;;;;;;46.95;26.05;;;;;;;2.06;76.24;97344.84;1813509;76;21816;31
2020/12/16 17:18:02;;;;;;;50.52;28.47;;;;;;;2.05;76.17;97343.16;1760403;80;21112;-86
2020/12/16 17:20:43;;;;;;;51.73;28.30;;;;;;;1.96;76.09;97347.09;1762386;81;21070;-86
2020/12/16 17:23:34;;;;;;;55.58;29.60;;;;;;;1.98;76.18;97339.20;1760516;81;21236;-87
2020/12/16 17:26:10;;;;;;;60.17;31.75;;;;;;;2.04;76.30;97344.09;1760921;81;21127;-87
2020/12/16 17:28:49;;;;;;;49.20;27.15;;;;;;;2.11;76.14;97338.49;1761405;80;21097;-86
2020/12/16 17:31:53;;;;;;;46.75;26.30;;;;;;;2.21;75.96;97343.23;1765443;78;21230;-86
2020/12/16 17:35:03;;;;;;;49.08;27.77;;;;;;;2.14;75.43;97338.35;1738667;78;21125;31
2020/12/16 17:42:35;;;;;;;60.70;32.20;;;;;;;1.84;75.63;97339.91;1761498;78;22756;31
2020/12/16 17:45:48;;;;;;;61.60;31.20;;;;;;;1.77;76.35;97335.45;1759230;81;21133;-87
2020/12/16 17:48:46;;;;;;;51.53;26.30;;;;;;;1.95;76.38;97342.78;1767857;80;21046;-87
2020/12/16 17:52:01;;;;;;;56.10;29.92;;;;;;;1.91;76.17;97344.34;1773982;80;21195;-86
2020/12/16 17:55:12;;;;;;;52.93;28.47;;;;;;;1.77;76.26;97339.81;1778711;79;21082;-87
2020/12/16 17:58:14;;;;;;;65.65;33.00;;;;;;;1.68;76.70;97346.31;1783768;80;21040;-88
2020/12/16 18:01:12;;;;;;;75.32;37.20;;;;;;;1.54;76.96;97347.00;1752258;81;21093;-87
2020/12/16 18:04:29;;;;;;;68.12;35.75;;;;;;;1.48;77.42;97350.33;1818711;78;21081;-87
2020/12/16 18:07:08;;;;;;;69.40;39.45;;;;;;;1.57;77.73;97344.70;1822540;78;21121;-88
2020/12/16 18:10:16;;;;;;;75.67;40.55;;;;;;;1.71;77.62;97344.02;1804101;78;21053;-85
2020/12/16 18:13:04;;;;;;;;;;;;;;;1.84;76.95;97347.24;1826117;78;21477;-87
2020/12/16 18:15:55;;;;;;;66.97;38.42;;;;;;;1.83;76.68;97350.73;1823437;78;20172;-85
2020/12/16 18:18:59;;;;;;;70.52;40.38;;;;;;;1.84;76.75;97351.60;1823512;78;21196;-87
2020/12/16 18:21:37;;;;;;;72.90;36.73;;;;;;;1.93;76.88;97355.02;1823175;78;21021;-87
2020/12/16 18:24:57;;;;;;;74.58;37.05;;;;;;;2.05;76.54;97356.16;1788923;78;21224;-86
2020/12/16 18:27:50;;;;;;;69.40;38.58;;;;;;;2.11;76.26;97354.08;1796256;77;21157;-86
2020/12/16 18:30:49;;;;;;;69.50;37.13;;;;;;;2.18;75.73;97353.77;1780380;79;21042;-88
2020/12/16 18:34:14;;;;;;;67.10;36.53;;;;;;;2.14;75.71;97356.54;1813727;78;21109;-86
2020/12/16 18:37:27;;;;;;;72.15;38.95;;;;;;;2.20;75.67;97364.48;1824062;78;21068;-88
2020/12/16 18:47:52;;;;;;;;;;;;;;;2.24;75.06;97380.73;1821573;77;21073;-88
2020/12/16 18:50:54;;;;;;;60.98;33.65;;;;;;;2.12;75.01;97377.84;1824348;78;21266;-87
2020/12/16 18:53:48;;;;;;;66.60;35.23;;;;;;;2.08;75.03;97371.60;1824466;78;21239;-88
2020/12/16 18:56:50;;;;;;;62.53;33.75;;;;;;;2.03;75.28;97370.98;1824432;78;21104;-86
2020/12/16 18:59:51;;;;;;;62.03;33.75;;;;;;;2.00;75.34;97381.05;1824605;78;21041;-86
2020/12/16 19:02:29;;;;;;;59.65;32.20;;;;;;;1.92;75.48;97376.72;1824906;78;21105;-87
2020/12/16 19:05:25;;;;;;;56.45;30.08;;;;;;;1.82;75.73;97376.32;1823141;78;21406;-86
2020/12/16 19:08:38;;;;;;;59.58;33.45;;;;;;;1.81;75.81;97374.64;1811296;78;21115;-87
2020/12/16 19:15:15;;;;;;;63.83;33.30;;;;;;;1.65;75.78;97371.11;1801824;76;21110;-87
2020/12/16 19:18:14;;;;;;;68.87;36.30;;;;;;;1.55;76.18;97372.50;1821989;78;21034;-87
2020/12/16 19:21:41;;;;;;;64.03;35.00;;;;;;;1.56;76.83;97378.91;1719892;76;21399;-87
2020/12/16 19:24:35;;;;;;;73.22;37.65;;;;;;;1.56;76.85;97385.86;1788901;77;21176;-86
2020/12/16 19:27:44;;;;;;;61.37;35.75;;;;;;;1.50;77.28;97390.05;1708333;83;21180;-86
2020/12/16 19:30:51;;;;;;;63.38;33.85;;;;;;;1.61;77.58;97391.67;1708220;84;21609;-85
2020/12/16 19:33:37;;;;;;;64.10;34.70;;;;;;;1.72;77.01;97385.50;1708595;81;21146;-86
2020/12/16 19:36:24;;;;;;;62.57;32.93;;;;;;;1.69;76.75;97388.23;1731798;83;21512;-87
2020/12/16 19:39:03;;;;;;;63.10;34.60;;;;;;;1.67;76.92;97387.94;1718258;83;21112;-87
2020/12/16 19:41:35;;;;;;;62.55;33.02;;;;;;;1.69;76.79;97382.20;1718351;83;21129;-87
2020/12/16 19:44:09;;;;;;;60.65;31.87;;;;;;;1.66;76.88;97379.31;1735012;82;21051;-85
2020/12/16 19:46:55;;;;;;;60.33;32.95;;;;;;;1.66;76.98;97387.09;1697488;83;21139;-87
2020/12/16 19:49:54;;;;;;;60.33;31.60;;;;;;;1.70;77.16;97387.31;1731628;82;21165;-87
2020/12/16 19:52:54;;;;;;;53.70;29.98;;;;;;;1.67;76.67;97390.53;1717314;83;21496;-88
2020/12/16 19:55:41;;;;;;;48.42;27.35;;;;;;;1.59;76.71;97387.83;1730969;82;21333;-86
2020/12/16 19:58:23;;;;;;;43.13;25.15;;;;;;;1.62;76.77;97388.61;1681876;84;21077;-86
2020/12/16 20:01:27;;;;;;;43.48;24.67;;;;;;;1.61;76.60;97389.08;1718050;83;21049;-87
2020/12/16 20:04:26;;;;;;;45.45;25.40;;;;;;;1.61;76.34;97394.27;1728000;82;21134;-88
2020/12/16 20:07:15;;;;;;;38.92;22.87;;;;;;;1.54;76.14;97395.02;1701764;84;21225;-88
2020/12/16 20:10:04;;;;;;;42.45;25.00;;;;;;;1.55;76.27;97394.10;1718051;83;21153;-87
2020/12/16 20:17:24;;;;;;;41.42;24.32;;;;;;;1.52;76.22;97402.48;1783738;77;22679;31
2020/12/16 20:36:04;;;;;;;40.35;23.55;;;;;;;1.47;76.81;97416.97;1761560;79;21176;-88
2020/12/16 20:38:40;;;;;;;42.45;23.18;;;;;;;1.51;76.54;97416.38;1804346;79;22115;-87
2020/12/16 20:41:20;;;;;;;38.02;22.05;;;;;;;1.50;76.48;97419.89;1803808;79;21043;-89
2020/12/16 20:44:13;;;;;;;42.20;24.30;;;;;;;1.55;76.53;97423.11;1802436;79;21125;-87
2020/12/16 20:46:55;;;;;;;43.70;23.85;;;;;;;1.53;76.30;97433.55;1770026;78;21155;-87
2020/12/16 20:49:31;;;;;;;47.10;29.10;;;;;;;1.53;76.45;97427.52;1773802;80;21569;-86
2020/12/16 20:52:21;;;;;;;40.95;24.50;;;;;;;1.57;76.46;97426.47;1780501;80;21101;-86
2020/12/16 20:54:56;;;;;;;45.95;25.92;;;;;;;1.64;76.26;97429.61;1775044;77;20990;-88
2020/12/16 20:57:31;;;;;;;42.73;23.42;;;;;;;1.62;76.13;97424.50;1774796;77;21136;-86
2020/12/16 21:00:06;;;;;;;46.88;25.68;;;;;;;1.64;76.19;97423.95;1774770;77;21061;-85
2020/12/16 21:17:24;;;;;;;44.23;24.23;;;;;;;1.61;75.93;97433.20;1805616;76;21309;-86
2020/12/16 22:04:45;;;;;;;71.30;35.95;;;;;;;1.73;76.59;97478.05;1706295;81;21104;-87
2020/12/16 22:07:20;;;;;;;81.95;43.55;;;;;;;1.68;76.64;97482.61;1674171;82;21565;-87
2020/12/16 22:09:51;;;;;;;74.82;37.28;;;;;;;1.63;76.88;97478.09;1693229;83;21184;-87
2020/12/16 22:12:41;;;;;;;66.00;33.67;;;;;;;1.65;77.22;97489.23;1743815;78;21188;-86
2020/12/16 22:15:15;;;;;;;61.53;30.35;;;;;;;1.72;77.36;97489.78;1779951;80;21034;-85
2020/12/16 22:18:06;;;;;;;56.58;31.50;;;;;;;1.75;77.39;97487.05;1812011;78;21085;-87
2020/12/16 22:20:39;;;;;;;59.18;28.35;;;;;;;1.75;77.43;97485.76;1773219;79;21360;-87
2020/12/16 22:23:35;;;;;;;59.08;31.05;;;;;;;1.78;77.55;97480.41;1774113;79;21082;-85
2020/12/16 22:26:07;;;;;;;71.25;35.35;;;;;;;1.79;77.40;97484.25;1782867;79;21451;-86
2020/12/16 22:28:38;;;;;;;72.42;36.98;;;;;;;1.79;77.73;97482.95;1797924;79;21624;-87
2020/12/16 22:31:12;;;;;;;66.45;33.25;;;;;;;1.83;77.72;97490.95;1786116;78;21049;-88
2020/12/16 22:33:43;;;;;;;58.38;31.05;;;;;;;1.88;77.70;97488.14;1793170;79;21196;-87
2020/12/16 22:36:13;;;;;;;59.77;30.00;;;;;;;1.90;77.65;97491.53;1790826;79;21319;-88
2020/12/16 22:38:44;;;;;;;60.67;28.77;;;;;;;1.88;77.48;97494.18;1774471;78;21168;-86
2020/12/16 22:41:16;;;;;;;64.47;32.15;;;;;;;1.83;77.58;97495.31;1794774;78;21077;-87
2020/12/16 22:43:53;;;;;;;73.97;34.10;;;;;;;1.78;77.77;97504.64;1788929;77;21354;-86
2020/12/16 22:47:14;;;;;;;62.62;32.73;;;;;;;1.77;77.89;97506.83;1647173;80;22666;31
2020/12/16 22:49:50;;;;;;;64.72;32.53;;;;;;;1.84;78.28;97503.52;1670772;84;21359;-85
2020/12/16 22:52:20;;;;;;;59.40;30.72;;;;;;;1.90;78.25;97491.95;1711111;82;21183;-86
2020/12/16 22:54:51;;;;;;;61.45;29.90;;;;;;;2.02;78.23;97496.13;1727757;81;21049;-86
2020/12/16 22:57:20;;;;;;;54.03;27.98;;;;;;;2.11;77.55;97490.47;1724353;81;21168;-85
2020/12/16 22:59:49;;;;;;;59.10;29.25;;;;;;;2.11;77.50;97496.97;1730140;81;21421;-86
2020/12/16 23:02:18;;;;;;;61.02;31.73;;;;;;;2.10;77.40;97501.78;1718595;81;21049;-87
2020/12/16 23:04:52;;;;;;;55.00;28.57;;;;;;;2.13;77.38;97499.05;1726851;81;21124;-85
2020/12/16 23:07:43;;;;;;;49.08;24.75;;;;;;;2.12;77.26;97501.24;1721896;81;21197;-85
2020/12/16 23:10:18;;;;;;;45.35;23.02;;;;;;;2.08;77.38;97497.59;1726821;81;21087;-86
2020/12/16 23:13:07;;;;;;;39.63;20.15;;;;;;;2.07;77.47;97500.63;1731459;80;21745;-86
2020/12/16 23:15:49;;;;;;;38.55;19.90;;;;;;;2.06;77.27;97505.44;1693776;82;21057;-87
2020/12/16 23:18:20;;;;;;;34.98;18.07;;;;;;;2.00;77.34;97504.44;1690537;83;21057;-85
2020/12/16 23:21:29;;;;;;;34.83;18.07;;;;;;;2.06;77.49;97502.00;1701563;81;21105;-86
2020/12/16 23:24:03;;;;;;;31.82;16.65;;;;;;;2.05;77.19;97504.22;1709571;83;21177;-87
2020/12/16 23:26:34;;;;;;;28.92;15.23;;;;;;;2.04;77.50;97502.55;1686315;83;21223;-87
2020/12/16 23:29:41;;;;;;;31.40;15.20;;;;;;;2.10;77.53;97500.48;1699538;82;21299;-86
2020/12/16 23:32:23;;;;;;;32.38;15.70;;;;;;;2.18;77.49;97500.56;1689910;82;21184;-86
2020/12/16 23:35:02;;;;;;;30.30;16.32;;;;;;;2.25;77.14;97503.23;1701625;83;21255;-86
2020/12/16 23:38:13;;;;;;;34.78;16.62;;;;;;;2.23;77.12;97502.02;1716315;82;22069;-85
2020/12/16 23:41:14;;;;;;;34.75;17.25;;;;;;;2.22;77.22;97507.30;1736215;81;21059;-84
2020/12/16 23:43:47;;;;;;;31.48;16.05;;;;;;;2.20;77.23;97507.84;1726819;78;21226;-85
2020/12/16 23:46:50;;;;;;;28.02;14.90;;;;;;;2.22;77.38;97509.91;1726588;78;21204;-86
2020/12/16 23:49:38;;;;;;;30.10;15.18;;;;;;;2.22;77.10;97516.40;1768749;79;21346;-86
2020/12/16 23:52:11;;;;;;;30.48;16.50;;;;;;;2.23;76.96;97512.88;1778086;78;21172;-86
2020/12/16 23:54:42;;;;;;;31.20;17.87;;;;;;;2.28;76.80;97514.80;1777877;78;21370;-85
2020/12/16 23:57:35;;;;;;;29.48;15.72;;;;;;;2.34;76.76;97519.69;1782552;79;21169;-86
